createdAt,value
2019-04-21T00:03:55.500Z,-64
2019-04-21T00:14:43.294Z,-64
2019-04-21T00:19:30.550Z,-64
2019-04-21T00:25:11.569Z,-64
2019-04-21T00:30:44.074Z,-63
2019-04-21T00:40:09.033Z,-62
2019-04-21T00:45:18.020Z,-63
2019-04-21T00:56:39.308Z,-63
2019-04-21T01:03:14.061Z,-63
2019-04-21T01:11:36.556Z,-62
2019-04-21T01:16:57.207Z,-63
2019-04-21T01:21:59.865Z,-64
2019-04-21T01:26:38.938Z,-65
2019-04-21T01:32:04.928Z,-63
2019-04-21T01:37:39.746Z,-63
2019-04-21T01:43:02.427Z,-63
2019-04-21T02:09:41.777Z,-64
2019-04-21T02:15:35.846Z,-63
2019-04-21T02:22:57.215Z,-62
2019-04-21T02:40:03.725Z,-62
2019-04-21T02:45:29.466Z,-63
2019-04-21T03:02:54.011Z,-63
2019-04-21T03:08:33.487Z,-64
2019-04-21T03:14:05.173Z,-63
2019-04-21T03:35:32.402Z,-63
2019-04-21T03:39:58.994Z,-63
2019-04-21T03:51:25.419Z,-63
2019-04-21T04:28:37.965Z,-63
2019-04-21T04:39:35.679Z,-62
2019-04-21T04:50:52.883Z,-63
2019-04-21T04:56:28.563Z,-63
2019-04-21T05:07:49.811Z,-63
2019-04-21T05:13:15.906Z,-63
2019-04-21T05:20:01.483Z,-63
2019-04-21T05:25:03.288Z,-64
2019-04-21T05:31:12.395Z,-63
2019-04-21T05:37:07.043Z,-63
2019-04-21T05:42:49.424Z,-64
2019-04-21T05:48:28.062Z,-62
2019-04-21T05:54:29.197Z,-63
2019-04-21T06:00:22.817Z,-63
2019-04-21T06:08:06.836Z,-64
2019-04-21T06:13:42.573Z,-62
2019-04-21T06:19:42.995Z,-63
2019-04-21T06:31:05.300Z,-64
2019-04-21T06:43:10.756Z,-62
2019-04-21T06:48:40.358Z,-63
2019-04-21T06:54:14.114Z,-64
2019-04-21T07:00:40.379Z,-66
2019-04-21T07:07:04.415Z,-63
2019-04-21T07:12:38.741Z,-63
2019-04-21T07:18:10.701Z,-64
2019-04-21T07:23:58.758Z,-64
2019-04-21T07:29:34.300Z,-61
2019-04-21T07:35:14.288Z,-63
2019-04-21T07:40:38.488Z,-65
2019-04-21T07:46:14.093Z,-63
2019-04-21T07:51:56.233Z,-64
2019-04-21T08:01:03.711Z,-64
2019-04-21T08:06:40.149Z,-63
2019-04-21T08:12:07.860Z,-64
2019-04-21T08:17:59.458Z,-63
2019-04-21T08:24:14.323Z,-63
2019-04-21T08:29:57.850Z,-64
2019-04-21T08:41:18.007Z,-64
2019-04-21T08:46:52.236Z,-64
2019-04-21T08:53:19.338Z,-63
2019-04-21T08:58:55.811Z,-65
2019-04-21T09:05:10.918Z,-61
2019-04-21T09:12:34.374Z,-64
2019-04-21T09:17:52.607Z,-64
2019-04-21T09:25:26.370Z,-71
2019-04-21T09:30:08.880Z,-69
2019-04-21T09:34:33.087Z,-69
2019-04-21T09:39:14.964Z,-70
2019-04-21T09:43:47.208Z,-68
2019-04-21T09:48:20.999Z,-70
2019-04-21T09:53:10.249Z,-72
2019-04-21T09:57:53.942Z,-70
2019-04-21T10:02:55.282Z,-68
2019-04-21T10:07:38.914Z,-70
2019-04-21T10:11:48.047Z,-70
2019-04-21T10:15:56.286Z,-69
2019-04-21T10:21:09.656Z,-70
2019-04-21T11:04:33.452Z,-69
2019-04-21T11:47:50.163Z,-70
2019-04-21T11:52:26.844Z,-70
2019-04-21T11:56:45.103Z,-70
2019-04-21T12:01:07.641Z,-69
2019-04-21T12:44:15.782Z,-71
2019-04-21T13:27:38.720Z,-68
2019-04-21T13:31:42.490Z,-69
2019-04-21T13:35:57.191Z,-71
2019-04-21T13:40:52.657Z,-69
2019-04-21T14:24:57.495Z,-71
2019-04-21T14:29:13.208Z,-72
2019-04-21T14:33:27.760Z,-70
2019-04-21T14:37:36.711Z,-70
2019-04-21T14:46:02.921Z,-69
2019-04-21T15:23:12.380Z,-65
2019-04-21T15:27:14.678Z,-66
2019-04-21T15:35:17.359Z,-64
2019-04-21T15:41:16.424Z,-64
2019-04-21T15:49:15.355Z,-64
2019-04-21T15:53:16.949Z,-68
2019-04-21T15:57:35.513Z,-66
2019-04-21T16:04:16.807Z,-67
2019-04-21T16:08:22.759Z,-66
2019-04-21T16:16:24.647Z,-67
2019-04-21T16:20:33.178Z,-66
2019-04-21T16:24:48.431Z,-64
2019-04-21T16:29:00.286Z,-65
2019-04-21T16:33:10.185Z,-63
2019-04-21T16:37:21.513Z,-63
2019-04-21T16:41:34.041Z,-64
2019-04-21T16:45:42.852Z,-63
2019-04-21T16:49:51.896Z,-64
2019-04-21T16:54:01.820Z,-66
2019-04-21T17:10:17.891Z,-65
2019-04-21T17:53:45.226Z,-65
2019-04-21T17:59:27.472Z,-65
2019-04-21T18:04:57.560Z,-62
2019-04-21T18:10:25.514Z,-62
2019-04-21T18:54:54.613Z,-65
2019-04-21T18:59:51.295Z,-65
2019-04-21T19:03:58.277Z,-64
2019-04-21T19:09:03.709Z,-64
2019-04-21T19:24:28.965Z,-64
2019-04-21T19:29:41.969Z,-65
2019-04-21T21:22:19.417Z,-70
2019-04-21T21:27:47.924Z,-63
2019-04-21T21:39:10.822Z,-64
2019-04-21T21:44:14.766Z,-62
2019-04-21T21:49:03.754Z,-63
2019-04-21T22:13:55.465Z,-65
2019-04-21T22:30:34.830Z,-62
2019-04-21T22:35:00.423Z,-63
2019-04-21T22:43:32.329Z,-64
2019-04-21T22:47:50.147Z,-62
2019-04-21T22:52:22.751Z,-63
2019-04-21T22:57:12.695Z,-63
2019-04-21T23:03:09.512Z,-61
2019-04-21T23:07:49.339Z,-64
2019-04-21T23:12:27.992Z,-63
2019-04-21T23:23:20.833Z,-64
2019-04-21T23:28:50.279Z,-63
2019-04-21T23:34:24.921Z,-63
2019-04-21T23:40:56.241Z,-62
2019-04-21T23:53:01.461Z,-63
2019-04-21T23:57:16.159Z,-62
